sensor_id;sensor_type;location;lat;lon;timestamp;temperature;humidity
15107;DHT22;7654;45.308;-75.096;2023-02-28T00:00:21;-6.20;99.90
15107;DHT22;7654;45.308;-75.096;2023-02-28T00:02:52;-6.20;99.90
15107;DHT22;7654;45.308;-75.096;2023-02-28T00:05:25;-6.20;99.90
15107;DHT22;7654;45.308;-75.096;2023-02-28T00:07:55;-6.20;99.90
15107;DHT22;7654;45.308;-75.096;2023-02-28T00:10:27;-6.20;99.90
15107;DHT22;7654;45.308;-75.096;2023-02-28T00:13:02;-6.20;99.90
15107;DHT22;7654;45.308;-75.096;2023-02-28T00:15:34;-6.20;99.90
15107;DHT22;7654;45.308;-75.096;2023-02-28T00:18:05;-6.20;99.90
15107;DHT22;7654;45.308;-75.096;2023-02-28T00:20:35;-6.20;99.90
15107;DHT22;7654;45.308;-75.096;2023-02-28T00:23:05;-6.20;99.90
15107;DHT22;7654;45.308;-75.096;2023-02-28T00:25:35;-6.20;99.90
15107;DHT22;7654;45.308;-75.096;2023-02-28T00:28:05;-6.20;99.90
15107;DHT22;7654;45.308;-75.096;2023-02-28T00:30:37;-6.30;99.90
15107;DHT22;7654;45.308;-75.096;2023-02-28T00:33:07;-6.20;99.90
15107;DHT22;7654;45.308;-75.096;2023-02-28T00:35:38;-6.20;99.90
15107;DHT22;7654;45.308;-75.096;2023-02-28T00:38:08;-6.20;99.90
15107;DHT22;7654;45.308;-75.096;2023-02-28T00:40:38;-6.30;99.90
15107;DHT22;7654;45.308;-75.096;2023-02-28T00:43:08;-6.20;99.90
15107;DHT22;7654;45.308;-75.096;2023-02-28T00:45:40;-6.30;99.90
15107;DHT22;7654;45.308;-75.096;2023-02-28T00:48:10;-6.30;99.90
15107;DHT22;7654;45.308;-75.096;2023-02-28T00:50:40;-6.30;99.90
15107;DHT22;7654;45.308;-75.096;2023-02-28T00:53:11;-6.30;99.90
15107;DHT22;7654;45.308;-75.096;2023-02-28T00:55:41;-6.20;99.90
15107;DHT22;7654;45.308;-75.096;2023-02-28T00:58:11;-6.20;99.90
15107;DHT22;7654;45.308;-75.096;2023-02-28T01:00:43;-6.20;99.90
15107;DHT22;7654;45.308;-75.096;2023-02-28T01:03:17;-6.10;99.90
15107;DHT22;7654;45.308;-75.096;2023-02-28T01:05:48;-6.10;99.90
15107;DHT22;7654;45.308;-75.096;2023-02-28T01:08:18;-6.10;99.90
15107;DHT22;7654;45.308;-75.096;2023-02-28T01:10:49;-6.10;99.90
15107;DHT22;7654;45.308;-75.096;2023-02-28T01:13:22;-6.10;99.90
15107;DHT22;7654;45.308;-75.096;2023-02-28T01:15:56;-6.00;99.90
15107;DHT22;7654;45.308;-75.096;2023-02-28T01:18:26;-6.00;99.90
15107;DHT22;7654;45.308;-75.096;2023-02-28T01:20:56;-6.00;99.90
15107;DHT22;7654;45.308;-75.096;2023-02-28T01:23:27;-6.00;99.90
15107;DHT22;7654;45.308;-75.096;2023-02-28T01:25:57;-6.10;99.90
15107;DHT22;7654;45.308;-75.096;2023-02-28T01:28:27;-6.10;99.90
15107;DHT22;7654;45.308;-75.096;2023-02-28T01:30:59;-6.10;99.90
15107;DHT22;7654;45.308;-75.096;2023-02-28T01:36:03;-6.10;99.90
15107;DHT22;7654;45.308;-75.096;2023-02-28T01:38:35;-6.20;99.90
15107;DHT22;7654;45.308;-75.096;2023-02-28T01:41:06;-6.20;99.90
15107;DHT22;7654;45.308;-75.096;2023-02-28T01:43:53;-6.30;99.90
15107;DHT22;7654;45.308;-75.096;2023-02-28T01:46:23;-6.30;99.90
15107;DHT22;7654;45.308;-75.096;2023-02-28T01:49:00;-6.30;99.90
15107;DHT22;7654;45.308;-75.096;2023-02-28T01:51:35;-6.30;99.90
15107;DHT22;7654;45.308;-75.096;2023-02-28T01:54:10;-6.30;99.90
15107;DHT22;7654;45.308;-75.096;2023-02-28T01:56:45;-6.30;99.90
15107;DHT22;7654;45.308;-75.096;2023-02-28T01:59:20;-6.30;99.90
15107;DHT22;7654;45.308;-75.096;2023-02-28T02:01:52;-6.40;99.90
15107;DHT22;7654;45.308;-75.096;2023-02-28T02:04:23;-6.40;99.90
15107;DHT22;7654;45.308;-75.096;2023-02-28T02:06:58;-6.40;99.90
15107;DHT22;7654;45.308;-75.096;2023-02-28T02:09:29;-6.40;99.90
15107;DHT22;7654;45.308;-75.096;2023-02-28T02:12:07;-6.40;99.90
15107;DHT22;7654;45.308;-75.096;2023-02-28T02:14:51;-6.50;99.90
15107;DHT22;7654;45.308;-75.096;2023-02-28T02:17:32;-6.50;99.90
15107;DHT22;7654;45.308;-75.096;2023-02-28T02:20:38;-6.50;99.90
15107;DHT22;7654;45.308;-75.096;2023-02-28T02:26:43;-6.50;99.90
15107;DHT22;7654;45.308;-75.096;2023-02-28T02:29:42;-6.50;99.90
15107;DHT22;7654;45.308;-75.096;2023-02-28T02:32:41;-6.50;99.90
15107;DHT22;7654;45.308;-75.096;2023-02-28T02:35:20;-6.60;99.90
15107;DHT22;7654;45.308;-75.096;2023-02-28T02:38:02;-6.60;99.90
15107;DHT22;7654;45.308;-75.096;2023-02-28T02:40:40;-6.60;99.90
15107;DHT22;7654;45.308;-75.096;2023-02-28T02:43:17;-6.60;99.90
15107;DHT22;7654;45.308;-75.096;2023-02-28T02:45:52;-6.60;99.90
15107;DHT22;7654;45.308;-75.096;2023-02-28T02:48:26;-6.60;99.90
15107;DHT22;7654;45.308;-75.096;2023-02-28T02:51:01;-6.70;99.90
15107;DHT22;7654;45.308;-75.096;2023-02-28T02:53:36;-6.70;99.90
15107;DHT22;7654;45.308;-75.096;2023-02-28T02:56:08;-6.70;99.90
15107;DHT22;7654;45.308;-75.096;2023-02-28T02:58:41;-6.80;99.90
15107;DHT22;7654;45.308;-75.096;2023-02-28T03:01:15;-6.80;99.90
15107;DHT22;7654;45.308;-75.096;2023-02-28T03:03:46;-6.80;99.90
15107;DHT22;7654;45.308;-75.096;2023-02-28T03:06:18;-6.80;99.90
15107;DHT22;7654;45.308;-75.096;2023-02-28T03:08:48;-6.80;99.90
15107;DHT22;7654;45.308;-75.096;2023-02-28T03:11:18;-6.80;99.90
15107;DHT22;7654;45.308;-75.096;2023-02-28T03:14:24;-6.80;99.90
15107;DHT22;7654;45.308;-75.096;2023-02-28T03:20:05;-6.80;99.90
15107;DHT22;7654;45.308;-75.096;2023-02-28T03:22:52;-6.90;99.90
15107;DHT22;7654;45.308;-75.096;2023-02-28T03:25:31;-6.90;99.90
15107;DHT22;7654;45.308;-75.096;2023-02-28T03:28:08;-6.90;99.90
15107;DHT22;7654;45.308;-75.096;2023-02-28T03:30:47;-6.90;99.90
15107;DHT22;7654;45.308;-75.096;2023-02-28T03:33:23;-6.90;99.90
15107;DHT22;7654;45.308;-75.096;2023-02-28T03:35:58;-6.90;99.90
15107;DHT22;7654;45.308;-75.096;2023-02-28T03:38:35;-6.90;99.90
15107;DHT22;7654;45.308;-75.096;2023-02-28T03:41:10;-6.90;99.90
15107;DHT22;7654;45.308;-75.096;2023-02-28T03:43:52;-6.90;99.90
15107;DHT22;7654;45.308;-75.096;2023-02-28T03:46:27;-6.90;99.90
15107;DHT22;7654;45.308;-75.096;2023-02-28T03:49:04;-6.90;99.90
15107;DHT22;7654;45.308;-75.096;2023-02-28T03:51:38;-6.90;99.90
15107;DHT22;7654;45.308;-75.096;2023-02-28T03:54:14;-6.90;99.90
15107;DHT22;7654;45.308;-75.096;2023-02-28T03:56:50;-7.00;99.90
15107;DHT22;7654;45.308;-75.096;2023-02-28T03:59:27;-7.00;99.90
15107;DHT22;7654;45.308;-75.096;2023-02-28T04:01:58;-7.00;99.90
15107;DHT22;7654;45.308;-75.096;2023-02-28T04:04:28;-7.00;99.90
15107;DHT22;7654;45.308;-75.096;2023-02-28T04:07:03;-7.00;99.90
15107;DHT22;7654;45.308;-75.096;2023-02-28T04:09:36;-7.00;99.90
15107;DHT22;7654;45.308;-75.096;2023-02-28T04:12:06;-7.00;99.90
15107;DHT22;7654;45.308;-75.096;2023-02-28T04:15:07;-7.00;99.90
15107;DHT22;7654;45.308;-75.096;2023-02-28T04:17:38;-7.00;99.90
15107;DHT22;7654;45.308;-75.096;2023-02-28T04:20:09;-7.00;99.90
15107;DHT22;7654;45.308;-75.096;2023-02-28T04:22:40;-7.10;99.90
15107;DHT22;7654;45.308;-75.096;2023-02-28T04:25:12;-7.00;99.90
15107;DHT22;7654;45.308;-75.096;2023-02-28T04:27:42;-7.10;99.90
15107;DHT22;7654;45.308;-75.096;2023-02-28T04:30:13;-7.10;99.90
15107;DHT22;7654;45.308;-75.096;2023-02-28T04:32:44;-7.10;99.90
15107;DHT22;7654;45.308;-75.096;2023-02-28T04:35:14;-7.10;99.90
15107;DHT22;7654;45.308;-75.096;2023-02-28T04:37:45;-7.10;99.90
15107;DHT22;7654;45.308;-75.096;2023-02-28T04:40:17;-7.10;99.90
15107;DHT22;7654;45.308;-75.096;2023-02-28T04:42:47;-7.10;99.90
15107;DHT22;7654;45.308;-75.096;2023-02-28T04:45:17;-7.10;99.90
15107;DHT22;7654;45.308;-75.096;2023-02-28T04:47:47;-7.10;99.90
15107;DHT22;7654;45.308;-75.096;2023-02-28T04:50:18;-7.10;99.90
15107;DHT22;7654;45.308;-75.096;2023-02-28T04:52:48;-7.10;99.90
15107;DHT22;7654;45.308;-75.096;2023-02-28T04:55:20;-7.10;99.90
15107;DHT22;7654;45.308;-75.096;2023-02-28T04:57:50;-7.10;99.90
15107;DHT22;7654;45.308;-75.096;2023-02-28T05:00:21;-7.10;99.90
15107;DHT22;7654;45.308;-75.096;2023-02-28T05:02:51;-7.10;99.90
15107;DHT22;7654;45.308;-75.096;2023-02-28T05:05:21;-7.10;99.90
15107;DHT22;7654;45.308;-75.096;2023-02-28T05:07:52;-7.10;99.90
15107;DHT22;7654;45.308;-75.096;2023-02-28T05:10:25;-7.10;99.90
15107;DHT22;7654;45.308;-75.096;2023-02-28T05:12:55;-7.10;99.90
15107;DHT22;7654;45.308;-75.096;2023-02-28T05:15:25;-7.10;99.90
15107;DHT22;7654;45.308;-75.096;2023-02-28T05:17:55;-7.10;99.90
15107;DHT22;7654;45.308;-75.096;2023-02-28T05:20:25;-7.10;99.90
15107;DHT22;7654;45.308;-75.096;2023-02-28T05:23:02;-7.20;99.90
15107;DHT22;7654;45.308;-75.096;2023-02-28T05:25:34;-7.10;99.90
15107;DHT22;7654;45.308;-75.096;2023-02-28T05:28:05;-7.10;99.90
15107;DHT22;7654;45.308;-75.096;2023-02-28T05:30:35;-7.10;99.90
15107;DHT22;7654;45.308;-75.096;2023-02-28T05:33:05;-7.10;99.90
15107;DHT22;7654;45.308;-75.096;2023-02-28T05:35:38;-7.10;99.90
15107;DHT22;7654;45.308;-75.096;2023-02-28T05:38:08;-7.10;99.90
15107;DHT22;7654;45.308;-75.096;2023-02-28T05:40:40;-7.10;99.90
15107;DHT22;7654;45.308;-75.096;2023-02-28T05:43:11;-7.10;99.90
15107;DHT22;7654;45.308;-75.096;2023-02-28T05:45:41;-7.10;99.90
15107;DHT22;7654;45.308;-75.096;2023-02-28T05:48:12;-7.10;99.90
15107;DHT22;7654;45.308;-75.096;2023-02-28T05:50:42;-7.10;99.90
15107;DHT22;7654;45.308;-75.096;2023-02-28T05:53:14;-7.00;99.90
15107;DHT22;7654;45.308;-75.096;2023-02-28T05:55:45;-7.00;99.90
15107;DHT22;7654;45.308;-75.096;2023-02-28T05:58:15;-7.00;99.90
15107;DHT22;7654;45.308;-75.096;2023-02-28T06:00:47;-7.00;99.90
15107;DHT22;7654;45.308;-75.096;2023-02-28T06:03:17;-7.00;99.90
15107;DHT22;7654;45.308;-75.096;2023-02-28T06:05:47;-6.90;99.90
15107;DHT22;7654;45.308;-75.096;2023-02-28T06:08:18;-6.90;99.90
15107;DHT22;7654;45.308;-75.096;2023-02-28T06:10:50;-6.90;99.90
15107;DHT22;7654;45.308;-75.096;2023-02-28T06:13:20;-6.90;99.90
15107;DHT22;7654;45.308;-75.096;2023-02-28T06:15:51;-6.90;99.90
15107;DHT22;7654;45.308;-75.096;2023-02-28T06:18:21;-6.90;99.90
15107;DHT22;7654;45.308;-75.096;2023-02-28T06:20:53;-6.80;99.90
15107;DHT22;7654;45.308;-75.096;2023-02-28T06:23:24;-6.80;99.90
15107;DHT22;7654;45.308;-75.096;2023-02-28T06:25:56;-6.80;99.90
15107;DHT22;7654;45.308;-75.096;2023-02-28T06:28:26;-6.80;99.90
15107;DHT22;7654;45.308;-75.096;2023-02-28T06:30:56;-6.80;99.90
15107;DHT22;7654;45.308;-75.096;2023-02-28T06:33:26;-6.80;99.90
15107;DHT22;7654;45.308;-75.096;2023-02-28T06:35:57;-6.80;99.90
15107;DHT22;7654;45.308;-75.096;2023-02-28T06:38:27;-6.80;99.90
15107;DHT22;7654;45.308;-75.096;2023-02-28T06:41:00;-6.70;99.90
15107;DHT22;7654;45.308;-75.096;2023-02-28T06:43:33;-6.70;99.90
15107;DHT22;7654;45.308;-75.096;2023-02-28T06:46:05;-6.60;99.90
15107;DHT22;7654;45.308;-75.096;2023-02-28T06:48:36;-6.60;99.90
15107;DHT22;7654;45.308;-75.096;2023-02-28T06:51:09;-6.60;99.90
15107;DHT22;7654;45.308;-75.096;2023-02-28T06:53:40;-6.60;99.90
15107;DHT22;7654;45.308;-75.096;2023-02-28T06:56:13;-6.60;99.90
15107;DHT22;7654;45.308;-75.096;2023-02-28T06:58:46;-6.60;99.90
15107;DHT22;7654;45.308;-75.096;2023-02-28T07:01:17;-6.50;99.90
15107;DHT22;7654;45.308;-75.096;2023-02-28T07:03:47;-6.50;99.90
15107;DHT22;7654;45.308;-75.096;2023-02-28T07:06:20;-6.50;99.90
15107;DHT22;7654;45.308;-75.096;2023-02-28T07:08:51;-6.50;99.90
15107;DHT22;7654;45.308;-75.096;2023-02-28T07:11:26;-6.60;99.90
15107;DHT22;7654;45.308;-75.096;2023-02-28T07:13:57;-6.60;99.90
15107;DHT22;7654;45.308;-75.096;2023-02-28T07:16:28;-6.60;99.90
15107;DHT22;7654;45.308;-75.096;2023-02-28T07:18:59;-6.60;99.90
15107;DHT22;7654;45.308;-75.096;2023-02-28T07:21:29;-6.60;99.90
15107;DHT22;7654;45.308;-75.096;2023-02-28T07:24:00;-6.60;99.90
15107;DHT22;7654;45.308;-75.096;2023-02-28T07:26:32;-6.60;99.90
15107;DHT22;7654;45.308;-75.096;2023-02-28T07:29:04;-6.60;99.90
15107;DHT22;7654;45.308;-75.096;2023-02-28T07:31:34;-6.60;99.90
15107;DHT22;7654;45.308;-75.096;2023-02-28T07:34:05;-6.60;99.90
15107;DHT22;7654;45.308;-75.096;2023-02-28T07:36:36;-6.60;99.90
15107;DHT22;7654;45.308;-75.096;2023-02-28T07:39:06;-6.60;99.90
15107;DHT22;7654;45.308;-75.096;2023-02-28T07:41:38;-6.60;99.90
15107;DHT22;7654;45.308;-75.096;2023-02-28T07:44:11;-6.60;99.90
15107;DHT22;7654;45.308;-75.096;2023-02-28T07:46:41;-6.60;99.90
15107;DHT22;7654;45.308;-75.096;2023-02-28T07:49:12;-6.60;99.90
15107;DHT22;7654;45.308;-75.096;2023-02-28T07:51:42;-6.60;99.90
15107;DHT22;7654;45.308;-75.096;2023-02-28T07:54:12;-6.60;99.90
15107;DHT22;7654;45.308;-75.096;2023-02-28T07:56:44;-6.60;99.90
15107;DHT22;7654;45.308;-75.096;2023-02-28T07:59:14;-6.60;99.90
15107;DHT22;7654;45.308;-75.096;2023-02-28T08:01:44;-6.60;99.90
15107;DHT22;7654;45.308;-75.096;2023-02-28T08:04:14;-6.60;99.90
15107;DHT22;7654;45.308;-75.096;2023-02-28T08:06:44;-6.60;99.90
15107;DHT22;7654;45.308;-75.096;2023-02-28T08:09:14;-6.60;99.90
15107;DHT22;7654;45.308;-75.096;2023-02-28T08:11:46;-6.60;99.90
15107;DHT22;7654;45.308;-75.096;2023-02-28T08:14:16;-6.60;99.90
15107;DHT22;7654;45.308;-75.096;2023-02-28T08:16:46;-6.60;99.90
15107;DHT22;7654;45.308;-75.096;2023-02-28T08:19:16;-6.60;99.90
15107;DHT22;7654;45.308;-75.096;2023-02-28T08:21:47;-6.60;99.90
15107;DHT22;7654;45.308;-75.096;2023-02-28T08:24:17;-6.60;99.90
15107;DHT22;7654;45.308;-75.096;2023-02-28T08:26:49;-6.60;99.90
15107;DHT22;7654;45.308;-75.096;2023-02-28T08:29:19;-6.60;99.90
15107;DHT22;7654;45.308;-75.096;2023-02-28T08:31:50;-6.60;99.90
15107;DHT22;7654;45.308;-75.096;2023-02-28T08:34:20;-6.60;99.90
15107;DHT22;7654;45.308;-75.096;2023-02-28T08:36:51;-6.50;99.90
15107;DHT22;7654;45.308;-75.096;2023-02-28T08:39:22;-6.60;99.90
15107;DHT22;7654;45.308;-75.096;2023-02-28T08:41:53;-6.50;99.90
15107;DHT22;7654;45.308;-75.096;2023-02-28T08:44:34;-6.50;99.90
15107;DHT22;7654;45.308;-75.096;2023-02-28T08:47:04;-6.50;99.90
15107;DHT22;7654;45.308;-75.096;2023-02-28T08:49:34;-6.50;99.90
15107;DHT22;7654;45.308;-75.096;2023-02-28T08:52:05;-6.40;99.90
15107;DHT22;7654;45.308;-75.096;2023-02-28T08:54:35;-6.40;99.90
15107;DHT22;7654;45.308;-75.096;2023-02-28T08:57:07;-6.40;99.90
15107;DHT22;7654;45.308;-75.096;2023-02-28T08:59:38;-6.40;99.90
15107;DHT22;7654;45.308;-75.096;2023-02-28T09:02:09;-6.40;99.90
15107;DHT22;7654;45.308;-75.096;2023-02-28T09:04:42;-6.30;99.90
15107;DHT22;7654;45.308;-75.096;2023-02-28T09:07:13;-6.30;99.90
15107;DHT22;7654;45.308;-75.096;2023-02-28T09:09:43;-6.30;99.90
15107;DHT22;7654;45.308;-75.096;2023-02-28T09:12:25;-6.30;99.90
15107;DHT22;7654;45.308;-75.096;2023-02-28T09:14:55;-6.30;99.90
15107;DHT22;7654;45.308;-75.096;2023-02-28T09:17:26;-6.30;99.90
15107;DHT22;7654;45.308;-75.096;2023-02-28T09:19:57;-6.40;99.90
15107;DHT22;7654;45.308;-75.096;2023-02-28T09:22:27;-6.40;99.90
15107;DHT22;7654;45.308;-75.096;2023-02-28T09:24:58;-6.30;99.90
15107;DHT22;7654;45.308;-75.096;2023-02-28T09:27:29;-6.30;99.90
15107;DHT22;7654;45.308;-75.096;2023-02-28T09:30:00;-6.30;99.90
15107;DHT22;7654;45.308;-75.096;2023-02-28T09:32:30;-6.30;99.90
15107;DHT22;7654;45.308;-75.096;2023-02-28T09:35:00;-6.30;99.90
15107;DHT22;7654;45.308;-75.096;2023-02-28T09:37:30;-6.30;99.90
15107;DHT22;7654;45.308;-75.096;2023-02-28T09:40:00;-6.30;99.90
15107;DHT22;7654;45.308;-75.096;2023-02-28T09:42:33;-6.20;99.90
15107;DHT22;7654;45.308;-75.096;2023-02-28T09:45:10;-6.20;99.90
15107;DHT22;7654;45.308;-75.096;2023-02-28T09:47:45;-6.20;99.90
15107;DHT22;7654;45.308;-75.096;2023-02-28T09:50:23;-6.20;99.90
15107;DHT22;7654;45.308;-75.096;2023-02-28T09:52:58;-6.20;99.90
15107;DHT22;7654;45.308;-75.096;2023-02-28T09:55:31;-6.20;99.90
15107;DHT22;7654;45.308;-75.096;2023-02-28T09:58:20;-6.20;99.90
15107;DHT22;7654;45.308;-75.096;2023-02-28T10:00:58;-6.30;99.90
15107;DHT22;7654;45.308;-75.096;2023-02-28T10:03:32;-6.30;99.90
15107;DHT22;7654;45.308;-75.096;2023-02-28T10:06:09;-6.30;99.90
15107;DHT22;7654;45.308;-75.096;2023-02-28T10:08:45;-6.30;99.90
15107;DHT22;7654;45.308;-75.096;2023-02-28T10:11:19;-6.30;99.90
15107;DHT22;7654;45.308;-75.096;2023-02-28T10:13:56;-6.30;99.90
15107;DHT22;7654;45.308;-75.096;2023-02-28T10:16:32;-6.40;99.90
15107;DHT22;7654;45.308;-75.096;2023-02-28T10:19:06;-6.40;99.90
15107;DHT22;7654;45.308;-75.096;2023-02-28T10:21:42;-6.40;99.90
15107;DHT22;7654;45.308;-75.096;2023-02-28T10:24:20;-6.40;99.90
15107;DHT22;7654;45.308;-75.096;2023-02-28T10:26:58;-6.40;99.90
15107;DHT22;7654;45.308;-75.096;2023-02-28T10:29:33;-6.40;99.90
15107;DHT22;7654;45.308;-75.096;2023-02-28T10:32:04;-6.40;99.90
15107;DHT22;7654;45.308;-75.096;2023-02-28T10:34:35;-6.30;99.90
15107;DHT22;7654;45.308;-75.096;2023-02-28T10:37:06;-6.30;99.90
15107;DHT22;7654;45.308;-75.096;2023-02-28T10:39:39;-6.30;99.90
15107;DHT22;7654;45.308;-75.096;2023-02-28T10:42:27;-6.30;99.90
15107;DHT22;7654;45.308;-75.096;2023-02-28T10:45:11;-6.30;99.90
15107;DHT22;7654;45.308;-75.096;2023-02-28T10:47:51;-6.30;99.90
15107;DHT22;7654;45.308;-75.096;2023-02-28T10:50:41;-6.30;99.90
15107;DHT22;7654;45.308;-75.096;2023-02-28T10:53:30;-6.30;99.90
15107;DHT22;7654;45.308;-75.096;2023-02-28T10:56:22;-6.20;99.90
15107;DHT22;7654;45.308;-75.096;2023-02-28T10:58:54;-6.20;99.90
15107;DHT22;7654;45.308;-75.096;2023-02-28T11:01:39;-6.10;99.90
15107;DHT22;7654;45.308;-75.096;2023-02-28T11:04:18;-6.10;99.90
15107;DHT22;7654;45.308;-75.096;2023-02-28T11:06:57;-6.10;99.90
15107;DHT22;7654;45.308;-75.096;2023-02-28T11:09:30;-6.10;99.90
15107;DHT22;7654;45.308;-75.096;2023-02-28T11:12:06;-6.00;99.90
15107;DHT22;7654;45.308;-75.096;2023-02-28T11:14:46;-6.00;99.90
15107;DHT22;7654;45.308;-75.096;2023-02-28T11:17:22;-6.00;99.90
15107;DHT22;7654;45.308;-75.096;2023-02-28T11:19:56;-5.90;99.90
15107;DHT22;7654;45.308;-75.096;2023-02-28T11:22:29;-5.90;99.90
15107;DHT22;7654;45.308;-75.096;2023-02-28T11:25:06;-5.90;99.90
15107;DHT22;7654;45.308;-75.096;2023-02-28T11:27:48;-5.90;99.90
15107;DHT22;7654;45.308;-75.096;2023-02-28T11:30:33;-5.90;99.90
15107;DHT22;7654;45.308;-75.096;2023-02-28T11:33:22;-6.00;99.90
15107;DHT22;7654;45.308;-75.096;2023-02-28T11:35:56;-6.00;99.90
15107;DHT22;7654;45.308;-75.096;2023-02-28T11:38:28;-6.00;99.90
15107;DHT22;7654;45.308;-75.096;2023-02-28T11:41:16;-6.00;99.90
15107;DHT22;7654;45.308;-75.096;2023-02-28T11:44:03;-6.00;99.90
15107;DHT22;7654;45.308;-75.096;2023-02-28T11:46:40;-6.00;99.90
15107;DHT22;7654;45.308;-75.096;2023-02-28T11:49:26;-6.00;99.90
15107;DHT22;7654;45.308;-75.096;2023-02-28T11:52:02;-5.90;99.90
15107;DHT22;7654;45.308;-75.096;2023-02-28T11:54:59;-5.90;99.90
15107;DHT22;7654;45.308;-75.096;2023-02-28T11:57:39;-5.90;99.90
15107;DHT22;7654;45.308;-75.096;2023-02-28T12:00:26;-5.90;99.90
15107;DHT22;7654;45.308;-75.096;2023-02-28T12:03:06;-5.90;99.90
15107;DHT22;7654;45.308;-75.096;2023-02-28T12:05:45;-5.90;99.90
15107;DHT22;7654;45.308;-75.096;2023-02-28T12:08:26;-5.90;99.90
15107;DHT22;7654;45.308;-75.096;2023-02-28T12:11:09;-5.90;99.90
15107;DHT22;7654;45.308;-75.096;2023-02-28T12:13:48;-5.90;99.90
15107;DHT22;7654;45.308;-75.096;2023-02-28T12:16:28;-5.80;99.90
15107;DHT22;7654;45.308;-75.096;2023-02-28T12:19:16;-5.80;99.90
15107;DHT22;7654;45.308;-75.096;2023-02-28T12:25:13;-5.70;99.90
15107;DHT22;7654;45.308;-75.096;2023-02-28T12:27:49;-5.60;99.90
15107;DHT22;7654;45.308;-75.096;2023-02-28T12:30:24;-5.50;99.90
15107;DHT22;7654;45.308;-75.096;2023-02-28T12:32:58;-5.50;99.90
15107;DHT22;7654;45.308;-75.096;2023-02-28T12:35:34;-5.40;99.90
15107;DHT22;7654;45.308;-75.096;2023-02-28T12:38:11;-5.40;99.90
15107;DHT22;7654;45.308;-75.096;2023-02-28T12:40:45;-5.40;99.90
15107;DHT22;7654;45.308;-75.096;2023-02-28T12:43:18;-5.30;99.90
15107;DHT22;7654;45.308;-75.096;2023-02-28T12:45:51;-5.30;99.90
15107;DHT22;7654;45.308;-75.096;2023-02-28T12:48:29;-5.20;99.90
15107;DHT22;7654;45.308;-75.096;2023-02-28T12:51:02;-5.10;99.90
15107;DHT22;7654;45.308;-75.096;2023-02-28T12:53:47;-5.10;99.90
15107;DHT22;7654;45.308;-75.096;2023-02-28T12:56:30;-5.00;99.90
15107;DHT22;7654;45.308;-75.096;2023-02-28T12:59:10;-5.00;99.90
15107;DHT22;7654;45.308;-75.096;2023-02-28T13:02:10;-5.00;99.90
15107;DHT22;7654;45.308;-75.096;2023-02-28T13:05:13;-5.00;99.90
15107;DHT22;7654;45.308;-75.096;2023-02-28T13:08:17;-5.00;99.90
15107;DHT22;7654;45.308;-75.096;2023-02-28T13:10:52;-4.90;99.90
15107;DHT22;7654;45.308;-75.096;2023-02-28T13:13:25;-4.80;99.90
15107;DHT22;7654;45.308;-75.096;2023-02-28T13:16:02;-4.70;99.90
15107;DHT22;7654;45.308;-75.096;2023-02-28T13:18:35;-4.60;99.90
15107;DHT22;7654;45.308;-75.096;2023-02-28T13:21:08;-4.50;99.90
15107;DHT22;7654;45.308;-75.096;2023-02-28T13:23:56;-4.30;99.90
15107;DHT22;7654;45.308;-75.096;2023-02-28T13:29:39;-4.40;99.90
15107;DHT22;7654;45.308;-75.096;2023-02-28T13:32:32;-4.40;99.90
15107;DHT22;7654;45.308;-75.096;2023-02-28T13:35:37;-4.30;99.90
15107;DHT22;7654;45.308;-75.096;2023-02-28T13:38:35;-4.10;99.90
15107;DHT22;7654;45.308;-75.096;2023-02-28T13:41:41;-4.10;99.90
15107;DHT22;7654;45.308;-75.096;2023-02-28T13:44:14;-4.00;99.90
15107;DHT22;7654;45.308;-75.096;2023-02-28T13:47:21;-3.90;99.90
15107;DHT22;7654;45.308;-75.096;2023-02-28T13:49:53;-3.80;99.90
15107;DHT22;7654;45.308;-75.096;2023-02-28T13:52:24;-3.70;99.90
15107;DHT22;7654;45.308;-75.096;2023-02-28T13:55:14;-3.60;99.90
15107;DHT22;7654;45.308;-75.096;2023-02-28T13:58:05;-3.50;99.90
15107;DHT22;7654;45.308;-75.096;2023-02-28T14:00:45;-3.60;99.90
15107;DHT22;7654;45.308;-75.096;2023-02-28T14:03:37;-3.50;99.90
15107;DHT22;7654;45.308;-75.096;2023-02-28T14:06:18;-3.40;99.90
15107;DHT22;7654;45.308;-75.096;2023-02-28T14:08:55;-3.40;99.90
15107;DHT22;7654;45.308;-75.096;2023-02-28T14:11:32;-3.20;99.90
15107;DHT22;7654;45.308;-75.096;2023-02-28T14:14:04;-3.10;99.90
15107;DHT22;7654;45.308;-75.096;2023-02-28T14:16:40;-3.00;99.90
15107;DHT22;7654;45.308;-75.096;2023-02-28T14:19:14;-2.80;99.90
15107;DHT22;7654;45.308;-75.096;2023-02-28T14:21:56;-2.90;99.90
15107;DHT22;7654;45.308;-75.096;2023-02-28T14:24:50;-2.80;99.90
15107;DHT22;7654;45.308;-75.096;2023-02-28T14:27:40;-2.60;99.90
15107;DHT22;7654;45.308;-75.096;2023-02-28T14:34:26;-2.50;99.90
15107;DHT22;7654;45.308;-75.096;2023-02-28T14:37:02;-2.40;99.90
15107;DHT22;7654;45.308;-75.096;2023-02-28T14:39:33;-2.20;99.90
15107;DHT22;7654;45.308;-75.096;2023-02-28T14:42:29;-1.90;99.90
15107;DHT22;7654;45.308;-75.096;2023-02-28T14:45:00;-1.60;99.90
15107;DHT22;7654;45.308;-75.096;2023-02-28T14:47:32;-1.60;99.90
15107;DHT22;7654;45.308;-75.096;2023-02-28T14:50:05;-1.40;99.90
15107;DHT22;7654;45.308;-75.096;2023-02-28T14:52:37;-1.20;99.90
15107;DHT22;7654;45.308;-75.096;2023-02-28T14:55:14;-1.10;99.90
15107;DHT22;7654;45.308;-75.096;2023-02-28T14:57:52;-0.90;99.90
15107;DHT22;7654;45.308;-75.096;2023-02-28T15:00:25;-0.70;99.90
15107;DHT22;7654;45.308;-75.096;2023-02-28T15:02:57;-0.80;99.90
15107;DHT22;7654;45.308;-75.096;2023-02-28T15:05:31;-0.70;99.90
15107;DHT22;7654;45.308;-75.096;2023-02-28T15:08:06;-0.70;99.90
15107;DHT22;7654;45.308;-75.096;2023-02-28T15:10:37;-1.00;99.90
15107;DHT22;7654;45.308;-75.096;2023-02-28T15:13:13;-0.90;99.90
15107;DHT22;7654;45.308;-75.096;2023-02-28T15:15:48;-0.80;99.90
15107;DHT22;7654;45.308;-75.096;2023-02-28T15:18:37;-1.00;99.90
15107;DHT22;7654;45.308;-75.096;2023-02-28T15:21:13;-0.70;99.90
15107;DHT22;7654;45.308;-75.096;2023-02-28T15:23:46;-0.70;99.90
15107;DHT22;7654;45.308;-75.096;2023-02-28T15:26:21;-0.60;99.90
15107;DHT22;7654;45.308;-75.096;2023-02-28T15:28:56;-0.30;99.90
15107;DHT22;7654;45.308;-75.096;2023-02-28T15:31:31;-0.10;99.90
15107;DHT22;7654;45.308;-75.096;2023-02-28T15:34:26;0.10;99.90
15107;DHT22;7654;45.308;-75.096;2023-02-28T15:37:30;0.20;99.90
15107;DHT22;7654;45.308;-75.096;2023-02-28T15:40:12;0.20;99.90
15107;DHT22;7654;45.308;-75.096;2023-02-28T15:42:42;0.20;99.90
15107;DHT22;7654;45.308;-75.096;2023-02-28T15:45:32;0.50;99.90
15107;DHT22;7654;45.308;-75.096;2023-02-28T15:48:15;0.40;99.90
15107;DHT22;7654;45.308;-75.096;2023-02-28T15:50:50;0.50;99.90
15107;DHT22;7654;45.308;-75.096;2023-02-28T15:53:25;0.50;99.90
15107;DHT22;7654;45.308;-75.096;2023-02-28T15:55:59;0.60;99.90
15107;DHT22;7654;45.308;-75.096;2023-02-28T15:58:30;0.70;99.90
15107;DHT22;7654;45.308;-75.096;2023-02-28T16:01:07;0.70;99.90
15107;DHT22;7654;45.308;-75.096;2023-02-28T16:03:43;0.70;99.90
15107;DHT22;7654;45.308;-75.096;2023-02-28T16:06:30;0.60;99.90
15107;DHT22;7654;45.308;-75.096;2023-02-28T16:09:04;0.50;99.90
15107;DHT22;7654;45.308;-75.096;2023-02-28T16:11:39;0.70;99.90
15107;DHT22;7654;45.308;-75.096;2023-02-28T16:14:16;0.90;99.90
15107;DHT22;7654;45.308;-75.096;2023-02-28T16:16:49;0.80;99.90
15107;DHT22;7654;45.308;-75.096;2023-02-28T16:19:21;1.00;99.90
15107;DHT22;7654;45.308;-75.096;2023-02-28T16:21:52;0.90;99.90
15107;DHT22;7654;45.308;-75.096;2023-02-28T16:24:24;0.70;99.90
15107;DHT22;7654;45.308;-75.096;2023-02-28T16:26:56;0.90;99.90